Purki — 9HA2386 — position and weather

sailwx.info

Track history (hours):
 
Tides and Currents Weather Stations Pressure Air Temp Water Temp Dewpoint Dewpoint Depression Visibility Wind Speed Wind Dir Waves Ship Positions

Purki

Last reported at 2016-May-30 12:24 UTC. Time now 2016-May-30 12:42 UTC.
Position N 41°21' E 002°10'.

Length 146 m; draft 7.5 m.

Type: Cargo ship. MMSI: 248495000.

Date/timePositionNaut miles runAvg speedWind from/ knotsBaromVisibWave heightAir tempDewpointWater temp
2016-May-30 12:24N 41°21' E 002°10'0 0.2
2016-May-30 11:33N 41°21' E 002°10'31211.0
2016-May-29 07:20N 43°10' E 008°45'912.1
2016-May-29 06:33N 43°14' E 008°57'1212.2
2016-May-29 05:33N 43°18' E 009°13'1212.1
2016-May-29 04:33N 43°23' E 009°28'1211.9
2016-May-29 03:33N 43°27' E 009°43'1212.0
2016-May-29 02:33N 43°30' E 009°59'1212.0
2016-May-29 01:33N 43°32' E 010°16'3 3.0
2016-May-29 00:33N 43°34' E 010°18'0 0.0
2016-May-28 23:33N 43°34' E 010°18'0 0.0
2016-May-28 22:33N 43°34' E 010°18'0 0.0
2016-May-28 21:33N 43°34' E 010°18'0 0.0
2016-May-28 20:33N 43°34' E 010°18'0 0.0
2016-May-28 19:33N 43°34' E 010°18'0 0.0
2016-May-28 18:33N 43°34' E 010°18'0 0.0
2016-May-28 17:33N 43°34' E 010°18'0 0.0
2016-May-28 16:33N 43°34' E 010°18'0 0.0
2016-May-28 15:33N 43°34' E 010°18'0 0.0
2016-May-28 14:33N 43°34' E 010°18'0 0.0
2016-May-28 13:33N 43°34' E 010°18'0 0.0
2016-May-28 12:33N 43°34' E 010°18'3 2.9
2016-May-28 11:33N 43°32' E 010°16'3 2.7
2016-May-28 10:33N 43°30' E 010°13'9 9.5
2016-May-28 09:33N 43°31' E 010°00'1212.3
2016-May-28 08:33N 43°40' E 009°49'1212.2
2016-May-28 07:33N 43°49' E 009°37'1111.5
2016-May-28 06:33N 43°57' E 009°26'1212.0
2016-May-28 05:33N 44°06' E 009°15'1212.0
2016-May-28 04:33N 44°15' E 009°04'1111.0
2016-May-28 03:33N 44°24' E 008°55'1 1.2
2016-May-28 02:32N 44°24' E 008°53'0 0.0
2016-May-28 01:29N 44°24' E 008°53'0 0.0
2016-May-28 00:32N 44°24' E 008°53'0 0.0
2016-May-27 23:32N 44°24' E 008°53'0 0.0
2016-May-27 22:32N 44°24' E 008°53'0 0.0
2016-May-27 21:32N 44°24' E 008°53'0 0.0
2016-May-27 20:32N 44°24' E 008°53'0 0.0
2016-May-27 19:32N 44°24' E 008°53'0 0.0
2016-May-27 18:32N 44°24' E 008°53'0 0.0
2016-May-27 17:32N 44°24' E 008°53'0 0.0
2016-May-27 16:32N 44°24' E 008°53'0 0.0
2016-May-27 15:32N 44°24' E 008°53'0 0.0
2016-May-27 14:32N 44°24' E 008°53'0 0.0
2016-May-27 13:29N 44°24' E 008°53'0 0.0
2016-May-27 12:29N 44°24' E 008°53'0 0.0
2016-May-27 11:29N 44°24' E 008°53'0 0.0
2016-May-27 10:32N 44°24' E 008°53'0 0.0
2016-May-27 09:32N 44°24' E 008°53'0 0.0
2016-May-27 08:32N 44°24' E 008°53'0 0.0
2016-May-27 07:32N 44°24' E 008°53'0 0.0
2016-May-27 06:33N 44°24' E 008°53'6 6.5
2016-May-27 05:33N 44°20' E 008°59'1312.7
2016-May-27 04:33N 44°08' E 009°05'1312.8
2016-May-27 03:33N 43°56' E 009°11'1312.6
2016-May-27 02:33N 43°44' E 009°17'1313.0
2016-May-27 01:33N 43°31' E 009°23'1313.1
2016-May-27 00:33N 43°19' E 009°30'1312.8
2016-May-26 23:33N 43°07' E 009°35'1313.0
2016-May-26 22:33N 42°54' E 009°39'1612.8
2016-May-26 21:20N 42°39' E 009°42'1012.8
2016-May-26 20:33N 42°29' E 009°43'1312.8
2016-May-26 19:33N 42°16' E 009°45'1312.6
2016-May-26 18:33N 42°04' E 009°45'1212.3
2016-May-26 17:33N 41°51' E 009°46'1212.1
2016-May-26 16:33N 41°39' E 009°48'2511.9
2016-May-26 14:27N 41°14' E 009°51'1212.2
2016-May-26 13:26N 41°02' E 009°52'1112.2
2016-May-26 12:33N 40°51' E 009°54'1211.9
2016-May-26 11:33N 40°40' E 009°56'1312.0
2016-May-26 10:27N 40°26' E 009°54'1612.0
2016-May-26 09:07N 40°11' E 009°53'712.0
2016-May-26 08:33N 40°04' E 009°52'6711.0
2016-May-26 02:26N 38°59' E 009°30'1011.5
2016-May-26 01:33N 39°02' E 009°18'1111.4
2016-May-26 00:33N 39°09' E 009°06'5 4.6
2016-May-25 23:32N 39°13' E 009°04'0 0.0
2016-May-25 22:32N 39°13' E 009°04'0 0.0
2016-May-25 21:32N 39°13' E 009°04'0 0.0
2016-May-25 20:32N 39°13' E 009°04'0 0.0
2016-May-25 19:32N 39°13' E 009°04'0 0.0
2016-May-25 18:32N 39°13' E 009°04'0 0.0
2016-May-25 17:32N 39°13' E 009°04'0 0.0
2016-May-25 16:32N 39°13' E 009°04'0 0.0
2016-May-25 15:32N 39°13' E 009°04'0 0.0
2016-May-25 14:32N 39°13' E 009°04'0 0.0
2016-May-25 13:32N 39°13' E 009°04'0 0.0
2016-May-25 12:32N 39°13' E 009°04'0 0.0
2016-May-25 11:32N 39°13' E 009°04'0 0.0
2016-May-25 10:32N 39°13' E 009°04'0 0.0
2016-May-25 09:32N 39°13' E 009°04'0 0.0
2016-May-25 08:32N 39°13' E 009°04'0 0.0
2016-May-25 07:32N 39°13' E 009°04'3 3.0
2016-May-25 06:31N 39°10' E 009°06'0 0.1
2016-May-25 05:31N 39°10' E 009°06'0 0.0
2016-May-25 04:31N 39°10' E 009°06'0 0.0
2016-May-25 03:31N 39°10' E 009°06'0 0.0
2016-May-25 02:31N 39°10' E 009°06'0 0.0
2016-May-25 01:28N 39°10' E 009°06'0 0.0
2016-May-25 00:31N 39°10' E 009°06'0 0.0
2016-May-24 23:31N 39°10' E 009°06'0 0.0
2016-May-24 22:31N 39°10' E 009°06'0 0.0
2016-May-24 21:31N 39°10' E 009°06'0 0.0
2016-May-24 20:31N 39°10' E 009°06'0 0.0
2016-May-24 19:31N 39°10' E 009°06'0 0.0
2016-May-24 18:31N 39°10' E 009°06'0 0.0
2016-May-24 17:31N 39°10' E 009°06'0 0.0
2016-May-24 16:31N 39°10' E 009°06'0 0.0
2016-May-24 15:31N 39°10' E 009°06'0 0.0
2016-May-24 14:31N 39°10' E 009°06'0 0.0
2016-May-24 13:31N 39°10' E 009°06'0 0.0
2016-May-24 10:07N 39°10' E 009°06'0 0.1
2016-May-24 09:31N 39°10' E 009°06'0 0.0
2016-May-24 08:31N 39°10' E 009°06'0 0.0
2016-May-24 07:31N 39°10' E 009°06'0 0.0
2016-May-24 06:31N 39°10' E 009°06'0 0.0
2016-May-24 05:31N 39°10' E 009°06'0 0.0
2016-May-24 04:31N 39°10' E 009°06'0 0.0
2016-May-24 03:31N 39°10' E 009°06'0 0.0
2016-May-24 02:31N 39°10' E 009°06'0 0.0
2016-May-24 01:31N 39°10' E 009°06'0 0.0
2016-May-24 00:31N 39°10' E 009°06'0 0.0
2016-May-23 23:31N 39°10' E 009°06'0 0.0
2016-May-23 22:31N 39°10' E 009°06'0 0.0
2016-May-23 21:31N 39°10' E 009°06'0 0.0
2016-May-23 20:31N 39°10' E 009°06'0 0.0
2016-May-23 19:31N 39°10' E 009°06'0 0.0
2016-May-23 18:33N 39°10' E 009°06'0 0.0
2016-May-23 17:33N 39°10' E 009°06'0 0.0
2016-May-23 16:33N 39°10' E 009°06'0 0.0
2016-May-23 15:33N 39°10' E 009°06'0 0.1
2016-May-23 14:33N 39°10' E 009°06'7 6.6
2016-May-23 13:33N 39°04' E 009°07'1111.1
2016-May-23 12:32N 38°54' E 008°60'1212.2
2016-May-23 11:33N 38°48' E 008°47'23612.4
2016-May-22 16:28N 37°13' E 004°13'1313.1
2016-May-22 15:31N 37°08' E 003°58'1212.5
2016-May-22 14:33N 37°04' E 003°44'1312.6
2016-May-22 13:34N 36°59' E 003°30'1212.4
2016-May-22 12:33N 36°54' E 003°16'1210.4
2016-May-22 11:23N 36°46' E 003°04'0 0.2
2016-May-22 10:32N 36°46' E 003°04'0 0.0
2016-May-22 09:32N 36°46' E 003°04'0 0.0
2016-May-22 08:26N 36°46' E 003°04'0 0.0
2016-May-21 19:32N 36°46' E 003°04'0 0.0
2016-May-21 18:20N 36°46' E 003°04'0 0.0
2016-May-21 17:26N 36°46' E 003°04'0 0.0
2016-May-21 16:29N 36°46' E 003°04'0 0.0
2016-May-21 15:23N 36°46' E 003°04'0 0.0
2016-May-21 14:32N 36°46' E 003°04'0 0.0
2016-May-21 13:32N 36°46' E 003°04'0 0.0
2016-May-21 12:32N 36°46' E 003°04'0 0.0
2016-May-21 11:26N 36°46' E 003°04'  
Track history (hours):
 
Tides and Currents Weather Stations Pressure Air Temp Water Temp Dewpoint Dewpoint Depression Visibility Wind Speed Wind Dir Waves Ship Positions

Purki

Last reported at 2016-May-30 12:24 UTC. Time now 2016-May-30 12:42 UTC.
Position N 41°21' E 002°10'.

Length 146 m; draft 7.5 m.

Type: Cargo ship. MMSI: 248495000.

Date/timePositionNaut miles runAvg speedWind from/ knotsBaromVisibWave heightAir tempDewpointWater temp
2016-May-30 12:24N 41°21' E 002°10'0 0.2
2016-May-30 11:33N 41°21' E 002°10'31211.0
2016-May-29 07:20N 43°10' E 008°45'912.1
2016-May-29 06:33N 43°14' E 008°57'1212.2
2016-May-29 05:33N 43°18' E 009°13'1212.1
2016-May-29 04:33N 43°23' E 009°28'1211.9
2016-May-29 03:33N 43°27' E 009°43'1212.0
2016-May-29 02:33N 43°30' E 009°59'1212.0
2016-May-29 01:33N 43°32' E 010°16'3 3.0
2016-May-29 00:33N 43°34' E 010°18'0 0.0
2016-May-28 23:33N 43°34' E 010°18'0 0.0
2016-May-28 22:33N 43°34' E 010°18'0 0.0
2016-May-28 21:33N 43°34' E 010°18'0 0.0
2016-May-28 20:33N 43°34' E 010°18'0 0.0
2016-May-28 19:33N 43°34' E 010°18'0 0.0
2016-May-28 18:33N 43°34' E 010°18'0 0.0
2016-May-28 17:33N 43°34' E 010°18'0 0.0
2016-May-28 16:33N 43°34' E 010°18'0 0.0
2016-May-28 15:33N 43°34' E 010°18'0 0.0
2016-May-28 14:33N 43°34' E 010°18'0 0.0
2016-May-28 13:33N 43°34' E 010°18'0 0.0
2016-May-28 12:33N 43°34' E 010°18'3 2.9
2016-May-28 11:33N 43°32' E 010°16'3 2.7
2016-May-28 10:33N 43°30' E 010°13'9 9.5
2016-May-28 09:33N 43°31' E 010°00'1212.3
2016-May-28 08:33N 43°40' E 009°49'1212.2
2016-May-28 07:33N 43°49' E 009°37'1111.5
2016-May-28 06:33N 43°57' E 009°26'1212.0
2016-May-28 05:33N 44°06' E 009°15'1212.0
2016-May-28 04:33N 44°15' E 009°04'1111.0
2016-May-28 03:33N 44°24' E 008°55'1 1.2
2016-May-28 02:32N 44°24' E 008°53'0 0.0
2016-May-28 01:29N 44°24' E 008°53'0 0.0
2016-May-28 00:32N 44°24' E 008°53'0 0.0
2016-May-27 23:32N 44°24' E 008°53'0 0.0
2016-May-27 22:32N 44°24' E 008°53'0 0.0
2016-May-27 21:32N 44°24' E 008°53'0 0.0
2016-May-27 20:32N 44°24' E 008°53'0 0.0
2016-May-27 19:32N 44°24' E 008°53'0 0.0
2016-May-27 18:32N 44°24' E 008°53'0 0.0
2016-May-27 17:32N 44°24' E 008°53'0 0.0
2016-May-27 16:32N 44°24' E 008°53'0 0.0
2016-May-27 15:32N 44°24' E 008°53'0 0.0
2016-May-27 14:32N 44°24' E 008°53'0 0.0
2016-May-27 13:29N 44°24' E 008°53'0 0.0
2016-May-27 12:29N 44°24' E 008°53'0 0.0
2016-May-27 11:29N 44°24' E 008°53'0 0.0
2016-May-27 10:32N 44°24' E 008°53'0 0.0
2016-May-27 09:32N 44°24' E 008°53'0 0.0
2016-May-27 08:32N 44°24' E 008°53'0 0.0
2016-May-27 07:32N 44°24' E 008°53'0 0.0
2016-May-27 06:33N 44°24' E 008°53'6 6.5
2016-May-27 05:33N 44°20' E 008°59'1312.7
2016-May-27 04:33N 44°08' E 009°05'1312.8
2016-May-27 03:33N 43°56' E 009°11'1312.6
2016-May-27 02:33N 43°44' E 009°17'1313.0
2016-May-27 01:33N 43°31' E 009°23'1313.1
2016-May-27 00:33N 43°19' E 009°30'1312.8
2016-May-26 23:33N 43°07' E 009°35'1313.0
2016-May-26 22:33N 42°54' E 009°39'1612.8
2016-May-26 21:20N 42°39' E 009°42'1012.8
2016-May-26 20:33N 42°29' E 009°43'1312.8
2016-May-26 19:33N 42°16' E 009°45'1312.6
2016-May-26 18:33N 42°04' E 009°45'1212.3
2016-May-26 17:33N 41°51' E 009°46'1212.1
2016-May-26 16:33N 41°39' E 009°48'2511.9
2016-May-26 14:27N 41°14' E 009°51'1212.2
2016-May-26 13:26N 41°02' E 009°52'1112.2
2016-May-26 12:33N 40°51' E 009°54'1211.9
2016-May-26 11:33N 40°40' E 009°56'1312.0
2016-May-26 10:27N 40°26' E 009°54'1612.0
2016-May-26 09:07N 40°11' E 009°53'712.0
2016-May-26 08:33N 40°04' E 009°52'6711.0
2016-May-26 02:26N 38°59' E 009°30'1011.5
2016-May-26 01:33N 39°02' E 009°18'1111.4
2016-May-26 00:33N 39°09' E 009°06'5 4.6
2016-May-25 23:32N 39°13' E 009°04'0 0.0
2016-May-25 22:32N 39°13' E 009°04'0 0.0
2016-May-25 21:32N 39°13' E 009°04'0 0.0
2016-May-25 20:32N 39°13' E 009°04'0 0.0
2016-May-25 19:32N 39°13' E 009°04'0 0.0
2016-May-25 18:32N 39°13' E 009°04'0 0.0
2016-May-25 17:32N 39°13' E 009°04'0 0.0
2016-May-25 16:32N 39°13' E 009°04'0 0.0
2016-May-25 15:32N 39°13' E 009°04'0 0.0
2016-May-25 14:32N 39°13' E 009°04'0 0.0
2016-May-25 13:32N 39°13' E 009°04'0 0.0
2016-May-25 12:32N 39°13' E 009°04'0 0.0
2016-May-25 11:32N 39°13' E 009°04'0 0.0
2016-May-25 10:32N 39°13' E 009°04'0 0.0
2016-May-25 09:32N 39°13' E 009°04'0 0.0
2016-May-25 08:32N 39°13' E 009°04'0 0.0
2016-May-25 07:32N 39°13' E 009°04'3 3.0
2016-May-25 06:31N 39°10' E 009°06'0 0.1
2016-May-25 05:31N 39°10' E 009°06'0 0.0
2016-May-25 04:31N 39°10' E 009°06'0 0.0
2016-May-25 03:31N 39°10' E 009°06'0 0.0
2016-May-25 02:31N 39°10' E 009°06'0 0.0
2016-May-25 01:28N 39°10' E 009°06'0 0.0
2016-May-25 00:31N 39°10' E 009°06'0 0.0
2016-May-24 23:31N 39°10' E 009°06'0 0.0
2016-May-24 22:31N 39°10' E 009°06'0 0.0
2016-May-24 21:31N 39°10' E 009°06'0 0.0
2016-May-24 20:31N 39°10' E 009°06'0 0.0
2016-May-24 19:31N 39°10' E 009°06'0 0.0
2016-May-24 18:31N 39°10' E 009°06'0 0.0
2016-May-24 17:31N 39°10' E 009°06'0 0.0
2016-May-24 16:31N 39°10' E 009°06'0 0.0
2016-May-24 15:31N 39°10' E 009°06'0 0.0
2016-May-24 14:31N 39°10' E 009°06'0 0.0
2016-May-24 13:31N 39°10' E 009°06'0 0.0
2016-May-24 10:07N 39°10' E 009°06'0 0.1
2016-May-24 09:31N 39°10' E 009°06'0 0.0
2016-May-24 08:31N 39°10' E 009°06'0 0.0
2016-May-24 07:31N 39°10' E 009°06'0 0.0
2016-May-24 06:31N 39°10' E 009°06'0 0.0
2016-May-24 05:31N 39°10' E 009°06'0 0.0
2016-May-24 04:31N 39°10' E 009°06'0 0.0
2016-May-24 03:31N 39°10' E 009°06'0 0.0
2016-May-24 02:31N 39°10' E 009°06'0 0.0
2016-May-24 01:31N 39°10' E 009°06'0 0.0
2016-May-24 00:31N 39°10' E 009°06'0 0.0
2016-May-23 23:31N 39°10' E 009°06'0 0.0
2016-May-23 22:31N 39°10' E 009°06'0 0.0
2016-May-23 21:31N 39°10' E 009°06'0 0.0
2016-May-23 20:31N 39°10' E 009°06'0 0.0
2016-May-23 19:31N 39°10' E 009°06'0 0.0
2016-May-23 18:33N 39°10' E 009°06'0 0.0
2016-May-23 17:33N 39°10' E 009°06'0 0.0
2016-May-23 16:33N 39°10' E 009°06'0 0.0
2016-May-23 15:33N 39°10' E 009°06'0 0.1
2016-May-23 14:33N 39°10' E 009°06'7 6.6
2016-May-23 13:33N 39°04' E 009°07'1111.1
2016-May-23 12:32N 38°54' E 008°60'1212.2
2016-May-23 11:33N 38°48' E 008°47'23612.4
2016-May-22 16:28N 37°13' E 004°13'1313.1
2016-May-22 15:31N 37°08' E 003°58'1212.5
2016-May-22 14:33N 37°04' E 003°44'1312.6
2016-May-22 13:34N 36°59' E 003°30'1212.4
2016-May-22 12:33N 36°54' E 003°16'1210.4
2016-May-22 11:23N 36°46' E 003°04'0 0.2
2016-May-22 10:32N 36°46' E 003°04'0 0.0
2016-May-22 09:32N 36°46' E 003°04'0 0.0
2016-May-22 08:26N 36°46' E 003°04'0 0.0
2016-May-21 19:32N 36°46' E 003°04'0 0.0
2016-May-21 18:20N 36°46' E 003°04'0 0.0
2016-May-21 17:26N 36°46' E 003°04'0 0.0
2016-May-21 16:29N 36°46' E 003°04'0 0.0
2016-May-21 15:23N 36°46' E 003°04'0 0.0
2016-May-21 14:32N 36°46' E 003°04'0 0.0
2016-May-21 13:32N 36°46' E 003°04'0 0.0
2016-May-21 12:32N 36°46' E 003°04'0 0.0
2016-May-21 11:26N 36°46' E 003°04'  

Dump ship's entire track history